createdAt,value
2023-04-18T00:01:43.144Z,64.38
2023-04-18T00:04:51.347Z,64.43
2023-04-18T00:08:13.687Z,64.47
2023-04-18T00:11:34.077Z,64.60
2023-04-18T00:14:38.086Z,64.31
2023-04-18T00:18:14.360Z,64.06
2023-04-18T00:21:40.385Z,64.12
2023-04-18T00:25:09.584Z,64.23
2023-04-18T00:28:33.976Z,64.08
2023-04-18T00:32:11.831Z,64.33
2023-04-18T00:35:39.448Z,64.04
2023-04-18T00:39:01.686Z,63.93
2023-04-18T00:42:33.467Z,64.05
2023-04-18T00:45:39.613Z,63.89
2023-04-18T00:49:11.071Z,63.90
2023-04-18T00:52:39.868Z,63.88
2023-04-18T00:56:06.304Z,63.94
2023-04-18T00:59:33.654Z,63.82
2023-04-18T01:02:53.393Z,63.65
2023-04-18T01:06:33.084Z,63.58
2023-04-18T01:09:58.914Z,63.78
2023-04-18T01:13:50.024Z,63.79
2023-04-18T01:17:06.632Z,63.59
2023-04-18T01:24:30.446Z,63.26
2023-04-18T01:27:34.236Z,63.23
2023-04-18T01:31:05.402Z,63.21
2023-04-18T01:34:20.560Z,63.36
2023-04-18T01:37:39.933Z,63.44
2023-04-18T01:41:14.404Z,63.39
2023-04-18T01:44:34.601Z,63.53
2023-04-18T01:47:43.086Z,63.58
2023-04-18T01:51:04.493Z,63.37
2023-04-18T01:54:43.624Z,63.36
2023-04-18T01:58:04.323Z,63.23
2023-04-18T02:01:22.997Z,63.32
2023-04-18T02:05:03.657Z,63.11
2023-04-18T02:08:18.207Z,63.24
2023-04-18T02:11:37.483Z,63.16
2023-04-18T02:15:02.590Z,63.10
2023-04-18T02:18:11.515Z,63.02
2023-04-18T02:21:20.243Z,62.79
2023-04-18T02:24:42.101Z,62.86
2023-04-18T02:27:56.055Z,62.79
2023-04-18T02:31:35.874Z,62.82
2023-04-18T02:34:58.001Z,63.08
2023-04-18T02:38:21.671Z,63.06
2023-04-18T02:41:40.741Z,63.00
2023-04-18T02:45:07.074Z,63.08
2023-04-18T02:48:30.854Z,62.99
2023-04-18T02:51:39.572Z,62.90
2023-04-18T02:55:00.425Z,62.86
2023-04-18T02:58:19.282Z,62.94
2023-04-18T03:01:48.407Z,62.88
2023-04-18T03:05:10.748Z,62.85
2023-04-18T03:08:26.979Z,62.83
2023-04-18T03:11:32.320Z,62.67
2023-04-18T03:14:56.620Z,62.84
2023-04-18T03:18:13.627Z,62.79
2023-04-18T03:21:22.554Z,62.80
2023-04-18T03:24:50.833Z,62.78
2023-04-18T03:27:53.099Z,62.71
2023-04-18T03:31:10.250Z,62.96
2023-04-18T03:34:22.935Z,63.09
2023-04-18T03:37:38.418Z,62.90
2023-04-18T03:41:06.406Z,62.69
2023-04-18T03:44:26.787Z,62.59
2023-04-18T03:47:58.330Z,62.82
2023-04-18T03:51:29.900Z,62.95
2023-04-18T03:54:47.125Z,63.12
2023-04-18T03:58:16.738Z,63.14
2023-04-18T04:01:46.664Z,63.14
2023-04-18T04:05:05.157Z,63.31
2023-04-18T04:08:28.236Z,63.40
2023-04-18T04:12:00.564Z,63.33
2023-04-18T04:15:12.956Z,63.10
2023-04-18T04:18:31.916Z,63.00
2023-04-18T04:21:55.859Z,63.22
2023-04-18T04:25:14.055Z,63.47
2023-04-18T04:28:28.909Z,63.78
2023-04-18T04:31:55.786Z,63.72
2023-04-18T04:34:52.295Z,63.71
2023-04-18T04:37:49.441Z,63.69
2023-04-18T04:40:44.338Z,63.73
2023-04-18T04:43:47.172Z,63.63
2023-04-18T04:46:40.599Z,63.60
2023-04-18T04:49:30.975Z,63.85
2023-04-18T04:52:12.976Z,63.59
2023-04-18T04:54:56.200Z,63.34
2023-04-18T04:57:40.787Z,63.31
2023-04-18T05:00:42.515Z,63.19
2023-04-18T05:03:36.885Z,63.18
2023-04-18T05:06:40.237Z,63.11
2023-04-18T05:09:24.249Z,62.87
2023-04-18T05:12:07.578Z,62.88
2023-04-18T05:14:55.711Z,62.84
2023-04-18T05:17:55.059Z,63.03
2023-04-18T05:21:03.130Z,63.03
2023-04-18T05:23:58.836Z,62.98
2023-04-18T05:27:06.234Z,62.97
2023-04-18T05:29:53.039Z,63.12
2023-04-18T05:32:46.209Z,63.00
2023-04-18T05:35:30.240Z,62.75
2023-04-18T05:38:20.232Z,62.77
2023-04-18T05:41:12.361Z,62.60
2023-04-18T05:44:16.839Z,62.65
2023-04-18T05:47:11.177Z,62.54
2023-04-18T05:50:17.334Z,62.55
2023-04-18T05:52:59.457Z,62.42
2023-04-18T05:55:46.757Z,62.39
2023-04-18T05:58:38.684Z,62.48
2023-04-18T06:01:18.968Z,62.39
2023-04-18T06:04:14.381Z,62.22
2023-04-18T06:07:06.992Z,62.27
2023-04-18T06:10:16.682Z,61.86
2023-04-18T06:13:13.683Z,61.73
2023-04-18T06:16:06.953Z,61.80
2023-04-18T06:19:06.265Z,62.00
2023-04-18T06:21:53.355Z,61.89
2023-04-18T06:24:44.986Z,61.90
2023-04-18T06:27:50.123Z,61.98
2023-04-18T06:30:37.034Z,61.83
2023-04-18T06:33:32.342Z,61.88
2023-04-18T06:36:14.120Z,61.78
2023-04-18T06:38:52.987Z,61.98
2023-04-18T06:41:38.746Z,62.00
2023-04-18T06:44:32.211Z,62.31
2023-04-18T06:47:31.872Z,62.10
2023-04-18T06:50:23.742Z,61.89
2023-04-18T06:53:12.430Z,62.36
2023-04-18T06:55:55.923Z,62.80
2023-04-18T06:58:42.941Z,62.78
2023-04-18T07:01:25.893Z,62.56
2023-04-18T07:04:14.499Z,62.73
2023-04-18T07:07:10.130Z,62.66
2023-04-18T07:10:09.130Z,62.87
2023-04-18T07:12:48.073Z,62.80
2023-04-18T07:15:41.098Z,62.96
2023-04-18T07:18:34.254Z,63.21
2023-04-18T07:21:26.821Z,63.40
2023-04-18T07:24:27.240Z,63.61
2023-04-18T07:27:10.560Z,63.80
2023-04-18T07:29:59.103Z,63.59
2023-04-18T07:32:53.420Z,63.65
2023-04-18T07:35:46.956Z,63.68
2023-04-18T07:38:53.014Z,63.94
2023-04-18T07:41:33.168Z,63.85
2023-04-18T07:44:29.606Z,63.80
2023-04-18T07:47:29.416Z,63.66
2023-04-18T07:50:24.967Z,63.84
2023-04-18T07:53:43.697Z,63.88
2023-04-18T07:56:52.004Z,64.04
2023-04-18T07:59:57.043Z,63.94
2023-04-18T08:03:07.696Z,63.68
2023-04-18T08:06:17.044Z,63.10
2023-04-18T08:09:14.327Z,63.53
2023-04-18T08:11:56.914Z,63.45
2023-04-18T08:14:51.092Z,63.30
2023-04-18T08:17:56.019Z,63.43
2023-04-18T08:20:35.371Z,63.50
2023-04-18T08:23:31.695Z,63.27
2023-04-18T08:26:15.536Z,63.21
2023-04-18T08:28:53.430Z,63.42
2023-04-18T08:31:38.060Z,63.08
2023-04-18T08:34:38.001Z,62.67
2023-04-18T08:37:21.947Z,62.62
2023-04-18T08:40:25.150Z,62.88
2023-04-18T08:43:10.311Z,62.80
2023-04-18T08:45:52.832Z,62.50
2023-04-18T08:48:45.364Z,62.61
2023-04-18T08:51:44.153Z,62.74
2023-04-18T08:54:44.273Z,62.67
2023-04-18T08:57:56.506Z,62.92
2023-04-18T09:00:46.355Z,62.95
2023-04-18T09:04:08.933Z,62.89
2023-04-18T09:06:52.975Z,62.66
2023-04-18T09:09:49.276Z,62.63
2023-04-18T09:12:47.964Z,62.44
2023-04-18T09:15:45.837Z,62.33
2023-04-18T09:18:43.358Z,62.54
2023-04-18T09:21:57.748Z,62.56
2023-04-18T09:24:56.862Z,62.69
2023-04-18T09:27:47.752Z,62.81
2023-04-18T09:30:47.659Z,62.73
2023-04-18T09:33:44.961Z,62.58
2023-04-18T09:36:35.448Z,62.59
2023-04-18T09:39:45.702Z,62.62
2023-04-18T09:42:39.964Z,62.56
2023-04-18T09:45:58.131Z,62.62
2023-04-18T09:49:12.964Z,63.01
2023-04-18T09:52:36.334Z,63.07
2023-04-18T09:56:07.279Z,63.12
2023-04-18T09:59:43.541Z,63.10
2023-04-18T10:03:12.176Z,62.95
2023-04-18T10:06:37.754Z,62.89
2023-04-18T10:10:05.027Z,62.54
2023-04-18T10:13:17.881Z,62.44
2023-04-18T10:16:50.501Z,62.47
2023-04-18T10:20:11.913Z,62.41
2023-04-18T10:23:56.186Z,62.38
2023-04-18T10:27:15.679Z,62.17
2023-04-18T10:30:37.497Z,62.08
2023-04-18T10:34:18.479Z,61.95
2023-04-18T10:37:35.279Z,62.01
2023-04-18T10:40:49.534Z,61.93
2023-04-18T10:44:38.118Z,61.84
2023-04-18T10:48:16.320Z,61.67
2023-04-18T10:51:59.124Z,61.36
2023-04-18T11:03:10.622Z,60.92
2023-04-18T11:06:25.942Z,60.53
2023-04-18T11:09:40.585Z,60.34
2023-04-18T11:12:42.566Z,60.35
2023-04-18T11:15:36.031Z,58.06
2023-04-18T11:18:54.993Z,56.52
2023-04-18T11:22:07.816Z,57.76
2023-04-18T11:25:00.791Z,62.28
2023-04-18T11:28:13.684Z,64.59
2023-04-18T11:31:18.521Z,64.36
2023-04-18T11:34:21.204Z,63.87
2023-04-18T11:37:48.660Z,63.42
2023-04-18T11:41:15.528Z,63.00
2023-04-18T11:44:11.987Z,62.36
2023-04-18T11:47:41.957Z,61.90
2023-04-18T11:50:39.322Z,61.99
2023-04-18T11:53:50.396Z,61.60
2023-04-18T11:56:39.559Z,61.44
2023-04-18T11:59:38.863Z,60.97
2023-04-18T12:03:06.234Z,60.63
2023-04-18T12:05:58.548Z,60.42
2023-04-18T12:09:28.628Z,60.50
2023-04-18T12:12:38.415Z,60.43
2023-04-18T12:15:23.511Z,60.12
2023-04-18T12:18:20.239Z,57.80
2023-04-18T12:21:15.244Z,56.79
2023-04-18T12:23:59.591Z,57.32
2023-04-18T12:27:12.105Z,61.11
2023-04-18T12:30:04.241Z,63.44
2023-04-18T12:33:15.826Z,63.05
2023-04-18T12:36:10.666Z,62.31
2023-04-18T12:39:04.910Z,61.73
2023-04-18T12:42:06.468Z,61.22
2023-04-18T12:45:13.543Z,60.32
2023-04-18T12:48:13.363Z,60.33
2023-04-18T12:51:25.173Z,57.86
2023-04-18T12:54:15.353Z,56.42
2023-04-18T12:57:32.047Z,57.87
2023-04-18T13:00:30.372Z,59.12
2023-04-18T13:03:41.912Z,63.24
2023-04-18T13:06:54.562Z,65.19
2023-04-18T13:09:51.067Z,64.38
2023-04-18T13:12:49.695Z,62.94
2023-04-18T13:15:55.048Z,62.54
2023-04-18T13:18:45.493Z,61.97
2023-04-18T13:21:49.478Z,61.48
2023-04-18T13:24:38.351Z,61.00
2023-04-18T13:27:29.696Z,59.60
2023-04-18T13:30:15.893Z,56.53
2023-04-18T13:33:07.958Z,55.80
2023-04-18T13:36:08.229Z,56.45
2023-04-18T13:39:07.647Z,56.71
2023-04-18T13:41:56.187Z,58.23
2023-04-18T13:44:50.777Z,59.09
2023-04-18T13:47:30.566Z,62.53
2023-04-18T13:50:24.529Z,64.05
2023-04-18T13:53:16.320Z,63.01
2023-04-18T13:55:56.677Z,61.34
2023-04-18T13:59:10.280Z,58.53
2023-04-18T14:01:46.908Z,56.81
2023-04-18T14:04:27.655Z,57.52
2023-04-18T14:07:19.789Z,58.78
2023-04-18T14:10:16.020Z,59.35
2023-04-18T14:13:12.656Z,62.75
2023-04-18T14:16:00.855Z,63.66
2023-04-18T14:18:54.463Z,62.63
2023-04-18T14:21:58.382Z,62.10
2023-04-18T14:24:52.658Z,58.71
2023-04-18T14:27:36.351Z,57.26
2023-04-18T14:30:24.436Z,58.00
2023-04-18T14:33:27.424Z,59.09
2023-04-18T14:36:18.230Z,59.83
2023-04-18T14:39:13.451Z,62.72
2023-04-18T14:41:56.144Z,63.95
2023-04-18T14:44:48.997Z,61.86
2023-04-18T14:47:46.607Z,61.50
2023-04-18T14:50:34.500Z,58.13
2023-04-18T14:53:30.005Z,56.55
2023-04-18T14:56:15.998Z,57.00
2023-04-18T14:58:55.734Z,57.73
2023-04-18T15:01:57.538Z,58.74
2023-04-18T15:04:35.080Z,59.43
2023-04-18T15:07:15.251Z,62.20
2023-04-18T15:09:58.260Z,64.52
2023-04-18T15:12:39.538Z,63.62
2023-04-18T15:15:40.112Z,62.60
2023-04-18T15:18:30.368Z,62.38
2023-04-18T15:21:19.014Z,59.04
2023-04-18T15:23:52.613Z,57.07
2023-04-18T15:26:31.694Z,57.65
2023-04-18T15:29:12.835Z,58.81
2023-04-18T15:31:49.473Z,59.16
2023-04-18T15:34:31.381Z,62.24
2023-04-18T15:37:05.807Z,64.71
2023-04-18T15:39:40.134Z,64.45
2023-04-18T15:42:28.168Z,63.54
2023-04-18T15:45:12.709Z,62.14
2023-04-18T15:47:51.714Z,59.58
2023-04-18T15:50:39.269Z,57.91
2023-04-18T15:53:16.653Z,58.34
2023-04-18T15:56:08.070Z,59.04
2023-04-18T15:58:56.210Z,59.79
2023-04-18T16:01:49.287Z,63.12
2023-04-18T16:04:34.261Z,65.38
2023-04-18T16:07:24.090Z,64.64
2023-04-18T16:10:20.668Z,63.73
2023-04-18T16:13:03.354Z,63.36
2023-04-18T16:15:54.539Z,62.38
2023-04-18T16:18:32.478Z,61.77
2023-04-18T16:21:10.896Z,61.04
2023-04-18T16:24:11.808Z,58.56
2023-04-18T16:27:01.301Z,56.87
2023-04-18T16:29:38.903Z,57.31
2023-04-18T16:32:24.405Z,56.70
2023-04-18T16:35:17.936Z,61.59
2023-04-18T16:38:01.992Z,64.08
2023-04-18T16:41:01.746Z,63.84
2023-04-18T16:43:43.896Z,63.29
2023-04-18T16:46:25.622Z,62.56
2023-04-18T16:49:16.391Z,61.76
2023-04-18T16:52:10.365Z,61.34
2023-04-18T16:55:21.863Z,59.13
2023-04-18T16:58:04.469Z,57.18
2023-04-18T17:01:03.248Z,58.12
2023-04-18T17:03:56.596Z,61.68
2023-04-18T17:06:41.795Z,63.91
2023-04-18T17:09:33.812Z,63.62
2023-04-18T17:12:31.885Z,62.94
2023-04-18T17:15:43.064Z,62.36
2023-04-18T17:18:30.901Z,62.09
2023-04-18T17:21:24.875Z,61.60
2023-04-18T17:24:23.258Z,61.30
2023-04-18T17:27:15.084Z,60.90
2023-04-18T17:29:59.336Z,58.54
2023-04-18T17:32:46.186Z,57.26
2023-04-18T17:35:50.561Z,57.63
2023-04-18T17:38:48.958Z,58.45
2023-04-18T17:41:55.508Z,61.99
2023-04-18T17:44:57.788Z,64.46
2023-04-18T17:47:42.602Z,64.05
2023-04-18T17:50:58.022Z,63.49
2023-04-18T17:54:01.027Z,62.76
2023-04-18T17:56:51.200Z,62.23
2023-04-18T17:59:37.846Z,61.42
2023-04-18T18:02:44.917Z,59.09
2023-04-18T18:05:40.922Z,56.84
2023-04-18T18:08:43.197Z,57.48
2023-04-18T18:11:53.981Z,58.17
2023-04-18T18:15:05.783Z,62.00
2023-04-18T18:18:14.648Z,64.49
2023-04-18T18:21:11.588Z,64.34
2023-04-18T18:24:36.019Z,63.38
2023-04-18T18:27:46.889Z,62.83
2023-04-18T18:30:45.696Z,62.28
2023-04-18T18:33:41.297Z,61.63
2023-04-18T18:36:54.216Z,61.34
2023-04-18T18:39:58.748Z,60.88
2023-04-18T18:42:57.730Z,57.90
2023-04-18T18:45:47.622Z,56.64
2023-04-18T18:48:58.082Z,57.32
2023-04-18T18:51:54.413Z,58.45
2023-04-18T18:54:37.532Z,62.11
2023-04-18T18:57:37.955Z,64.56
2023-04-18T19:00:36.442Z,64.73
2023-04-18T19:03:22.849Z,64.04
2023-04-18T19:06:25.420Z,63.56
2023-04-18T19:09:09.978Z,63.13
2023-04-18T19:12:08.768Z,62.47
2023-04-18T19:15:03.277Z,62.02
2023-04-18T19:17:49.066Z,61.64
2023-04-18T19:20:49.572Z,61.27
2023-04-18T19:23:42.431Z,60.89
2023-04-18T19:26:45.308Z,60.59
2023-04-18T19:29:36.418Z,58.13
2023-04-18T19:32:27.842Z,57.06
2023-04-18T19:35:24.330Z,57.47
2023-04-18T19:38:22.557Z,58.57
2023-04-18T19:41:37.413Z,62.53
2023-04-18T19:44:29.346Z,64.88
2023-04-18T19:47:33.413Z,64.64
2023-04-18T19:50:34.396Z,64.03
2023-04-18T19:53:15.885Z,63.49
2023-04-18T19:55:59.416Z,62.58
2023-04-18T19:58:58.003Z,62.28
2023-04-18T20:01:46.756Z,61.95
2023-04-18T20:04:38.426Z,61.57
2023-04-18T20:07:49.944Z,61.12
2023-04-18T20:10:41.483Z,60.89
2023-04-18T20:13:24.707Z,60.60
2023-04-18T20:16:09.120Z,58.36
2023-04-18T20:19:04.162Z,56.76
2023-04-18T20:21:53.019Z,57.24
2023-04-18T20:24:42.900Z,58.37
2023-04-18T20:27:37.800Z,61.80
2023-04-18T20:30:51.369Z,64.62
2023-04-18T20:33:48.691Z,64.37
2023-04-18T20:36:26.087Z,63.66
2023-04-18T20:39:19.747Z,62.89
2023-04-18T20:42:24.074Z,62.39
2023-04-18T20:45:27.978Z,62.14
2023-04-18T20:48:33.316Z,61.67
2023-04-18T20:51:37.249Z,61.13
2023-04-18T20:54:23.322Z,58.41
2023-04-18T20:57:30.207Z,56.72
2023-04-18T21:00:30.528Z,57.21
2023-04-18T21:03:31.287Z,58.61
2023-04-18T21:06:22.196Z,62.59
2023-04-18T21:09:26.588Z,65.16
2023-04-18T21:12:21.794Z,64.60
2023-04-18T21:15:22.637Z,63.79
2023-04-18T21:18:29.952Z,62.94
2023-04-18T21:21:19.905Z,62.41
2023-04-18T21:24:24.837Z,61.65
2023-04-18T21:27:16.971Z,61.00
2023-04-18T21:30:09.355Z,58.40
2023-04-18T21:33:09.536Z,56.90
2023-04-18T21:36:05.147Z,57.03
2023-04-18T21:39:20.756Z,57.95
2023-04-18T21:42:18.909Z,61.63
2023-04-18T21:45:23.177Z,64.46
2023-04-18T21:48:31.853Z,64.34
2023-04-18T21:51:45.998Z,63.79
2023-04-18T21:55:00.354Z,62.84
2023-04-18T21:58:08.970Z,62.21
2023-04-18T22:01:26.760Z,61.63
2023-04-18T22:04:36.713Z,60.97
2023-04-18T22:07:59.170Z,58.04
2023-04-18T22:11:13.839Z,57.40
2023-04-18T22:14:21.462Z,58.97
2023-04-18T22:17:44.598Z,59.17
2023-04-18T22:21:05.837Z,63.94
2023-04-18T22:24:33.565Z,65.62
2023-04-18T22:27:18.269Z,64.99
2023-04-18T22:30:30.460Z,63.83
2023-04-18T22:33:48.893Z,63.23
2023-04-18T22:36:58.767Z,62.65
2023-04-18T22:39:43.939Z,61.86
2023-04-18T22:43:13.057Z,60.62
2023-04-18T22:46:07.966Z,57.71
2023-04-18T22:49:27.514Z,57.18
2023-04-18T22:52:25.913Z,58.11
2023-04-18T22:55:20.892Z,60.31
2023-04-18T22:58:12.541Z,63.20
2023-04-18T23:01:20.243Z,64.84
2023-04-18T23:04:29.243Z,64.45
2023-04-18T23:07:32.004Z,64.01
2023-04-18T23:10:23.037Z,63.57
2023-04-18T23:13:25.104Z,62.62
2023-04-18T23:16:29.279Z,62.21
2023-04-18T23:19:26.269Z,61.83
2023-04-18T23:22:20.557Z,61.35
2023-04-18T23:25:20.377Z,60.98
2023-04-18T23:28:25.576Z,57.94
2023-04-18T23:31:33.024Z,57.01
2023-04-18T23:34:47.558Z,57.44
2023-04-18T23:37:47.900Z,58.27
2023-04-18T23:40:51.793Z,62.47
2023-04-18T23:43:58.367Z,65.20
2023-04-18T23:46:53.348Z,64.94
2023-04-18T23:50:05.830Z,64.09
2023-04-18T23:53:08.968Z,63.38
2023-04-18T23:56:06.957Z,62.60
2023-04-18T23:59:14.950Z,61.98
